Time;durP1;ratioP1;P1;durP2;ratioP2;P2;SDS_P1;SDS_P2;PMS_P1;PMS_P2;Temp;Humidity;BMP_temperature;BMP_pressure;BME280_temperature;BME280_humidity;BME280_pressure;Samples;Min_cycle;Max_cycle;Signal;HPM_P1;HPM_P2
2023/04/29 00:00:34;;;;;;;26.57;17.27;;;;;;;;;;5041581;28;20451;-77
2023/04/29 00:03:00;;;;;;;25.25;18.38;;;;;;;;;;5041240;28;20898;-77
2023/04/29 00:05:26;;;;;;;22.80;15.60;;;;;;;;;;5076544;28;20311;-78
2023/04/29 00:07:52;;;;;;;25.87;17.37;;;;;;;;;;5058005;28;20740;-78
2023/04/29 00:10:18;;;;;;;26.70;19.00;;;;;;;;;;5058400;28;20760;-77
2023/04/29 00:12:44;;;;;;;24.48;18.45;;;;;;;;;;5058083;28;20407;-77
2023/04/29 00:15:10;;;;;;;27.73;18.50;;;;;;;;;;5075431;28;20169;-77
2023/04/29 00:17:36;;;;;;;26.33;18.57;;;;;;;;;;5075840;28;20165;-78
2023/04/29 00:20:03;;;;;;;29.37;18.40;;;;;;;;;;5075024;28;20437;-77
2023/04/29 00:22:29;;;;;;;31.48;20.10;;;;;;;;;;5057782;28;20407;-77
2023/04/29 00:24:55;;;;;;;29.30;20.50;;;;;;;;;;5057003;28;20625;-78
2023/04/29 00:27:21;;;;;;;33.78;19.85;;;;;;;;;;5057610;28;20571;-77
2023/04/29 00:29:47;;;;;;;29.60;19.52;;;;;;;;;;5075593;28;20184;-77
2023/04/29 00:32:13;;;;;;;34.78;21.95;;;;;;;;;;5057727;28;20181;-77
2023/04/29 00:34:39;;;;;;;31.08;20.23;;;;;;;;;;5075501;28;20165;-78
2023/04/29 00:37:06;;;;;;;28.90;18.87;;;;;;;;;;5058393;28;20227;-78
2023/04/29 00:39:32;;;;;;;33.50;21.33;;;;;;;;;;5057990;28;20484;-77
2023/04/29 00:41:58;;;;;;;30.05;17.90;;;;;;;;;;5075519;28;20656;-77
2023/04/29 00:44:24;;;;;;;29.52;20.17;;;;;;;;;;5079843;28;20208;-77
2023/04/29 00:46:51;;;;;;;31.67;20.60;;;;;;;;;;5079206;28;20603;-78
2023/04/29 00:49:17;;;;;;;32.58;19.92;;;;;;;;;;5079640;28;20215;-78
2023/04/29 00:51:43;;;;;;;28.48;18.33;;;;;;;;;;5079603;28;20169;-78
2023/04/29 00:54:10;;;;;;;27.85;17.67;;;;;;;;;;5060624;28;20226;-77
2023/04/29 00:56:37;;;;;;;31.77;20.17;;;;;;;;;;5061190;28;20181;-77
2023/04/29 00:59:03;;;;;;;25.23;17.30;;;;;;;;;;5078792;28;20571;-78
2023/04/29 01:01:30;;;;;;;26.80;18.48;;;;;;;;;;5079312;28;20169;-78
2023/04/29 01:03:57;;;;;;;33.95;20.52;;;;;;;;;;5078977;28;20256;-77
2023/04/29 01:06:42;;;;;;;34.55;20.50;;;;;;;;;;5061464;28;20295;-77
2023/04/29 01:09:21;;;;;;;38.47;21.23;;;;;;;;;;5061094;28;20230;-77
2023/04/29 01:11:53;;;;;;;35.53;22.17;;;;;;;;;;5079002;28;20267;-78
2023/04/29 01:14:20;;;;;;;34.45;23.15;;;;;;;;;;5078645;28;20159;-78
2023/04/29 01:16:52;;;;;;;32.72;20.58;;;;;;;;;;5061489;28;20590;-78
2023/04/29 01:19:21;;;;;;;38.60;20.50;;;;;;;;;;5079226;28;20173;-77
2023/04/29 01:21:47;;;;;;;34.70;21.52;;;;;;;;;;5060834;28;20651;-78
2023/04/29 01:24:14;;;;;;;35.85;24.65;;;;;;;;;;5060317;28;20188;-77
2023/04/29 01:26:42;;;;;;;42.10;24.38;;;;;;;;;;5060693;28;20217;-77
2023/04/29 01:29:28;;;;;;;39.80;23.27;;;;;;;;;;5060263;28;20229;-77
2023/04/29 01:32:03;;;;;;;37.85;24.17;;;;;;;;;;5076395;28;20185;-81
2023/04/29 01:34:29;;;;;;;40.75;24.00;;;;;;;;;;5060765;28;20181;-77
2023/04/29 01:36:59;;;;;;;37.30;25.50;;;;;;;;;;5060574;28;20184;-78
2023/04/29 01:39:31;;;;;;;44.70;26.52;;;;;;;;;;5060171;28;20191;-77
2023/04/29 01:42:00;;;;;;;39.85;24.63;;;;;;;;;;5078501;28;20153;-78
2023/04/29 01:44:28;;;;;;;35.15;24.65;;;;;;;;;;5078804;28;20173;-77
2023/04/29 01:46:55;;;;;;;44.40;25.58;;;;;;;;;;5077910;28;20200;-78
2023/04/29 01:49:21;;;;;;;39.58;24.08;;;;;;;;;;5059648;28;20181;-78
2023/04/29 01:51:47;;;;;;;35.40;23.88;;;;;;;;;;5078469;28;20259;-77
2023/04/29 01:54:13;;;;;;;33.35;18.80;;;;;;;;;;5058489;28;20181;-78
2023/04/29 01:56:39;;;;;;;44.78;26.30;;;;;;;;;;5078594;28;20496;-78
2023/04/29 01:59:06;;;;;;;41.70;25.70;;;;;;;;;;5077734;28;21190;-77
2023/04/29 02:01:32;;;;;;;42.95;26.52;;;;;;;;;;5060634;28;20172;-78
2023/04/29 02:03:59;;;;;;;41.00;25.20;;;;;;;;;;5060000;28;20649;-78
2023/04/29 02:06:25;;;;;;;43.25;25.60;;;;;;;;;;5060325;28;20511;-77
2023/04/29 02:08:51;;;;;;;42.47;27.98;;;;;;;;;;5060285;28;20177;-78
2023/04/29 02:11:17;;;;;;;43.13;25.50;;;;;;;;;;5076962;28;20715;-78
2023/04/29 02:13:43;;;;;;;41.55;22.63;;;;;;;;;;5077857;28;20173;-78
2023/04/29 02:16:10;;;;;;;39.15;26.70;;;;;;;;;;5077624;28;20625;-78
2023/04/29 02:18:36;;;;;;;48.47;30.67;;;;;;;;;;5043052;28;20185;-77
2023/04/29 02:21:02;;;;;;;41.35;27.33;;;;;;;;;;5077465;28;20181;-77
2023/04/29 02:23:29;;;;;;;47.72;29.10;;;;;;;;;;5060060;28;20230;-78
2023/04/29 02:25:55;;;;;;;43.83;26.23;;;;;;;;;;5059539;28;20200;-78
2023/04/29 02:28:22;;;;;;;45.67;26.48;;;;;;;;;;5076613;28;20173;-77
2023/04/29 02:30:48;;;;;;;52.97;28.90;;;;;;;;;;5042914;28;20185;-78
2023/04/29 02:33:15;;;;;;;45.58;27.65;;;;;;;;;;5059522;28;20541;-78
2023/04/29 02:35:41;;;;;;;47.30;24.85;;;;;;;;;;5077604;28;20177;-78
2023/04/29 02:38:07;;;;;;;51.25;31.85;;;;;;;;;;5077300;28;20209;-78
2023/04/29 02:40:33;;;;;;;49.10;28.77;;;;;;;;;;5077823;28;20528;-78
2023/04/29 02:43:00;;;;;;;51.22;29.50;;;;;;;;;;5059703;28;20200;-79
2023/04/29 02:45:26;;;;;;;55.40;31.70;;;;;;;;;;5077074;28;20295;-78
2023/04/29 02:47:52;;;;;;;48.93;29.30;;;;;;;;;;5043248;28;20219;-77
2023/04/29 02:50:18;;;;;;;54.50;32.15;;;;;;;;;;5058648;28;20416;-78
2023/04/29 02:52:45;;;;;;;62.17;31.48;;;;;;;;;;5077135;28;20169;-78
2023/04/29 02:55:11;;;;;;;59.22;32.30;;;;;;;;;;5058921;28;20224;-77
2023/04/29 02:57:37;;;;;;;58.58;33.90;;;;;;;;;;5058811;28;20188;-78
2023/04/29 03:00:04;;;;;;;56.90;35.38;;;;;;;;;;5076847;28;20226;-78
2023/04/29 03:02:30;;;;;;;58.17;34.50;;;;;;;;;;5077311;28;20179;-77
2023/04/29 03:04:56;;;;;;;58.83;35.45;;;;;;;;;;5076902;28;20200;-77
2023/04/29 03:07:22;;;;;;;63.25;36.25;;;;;;;;;;5077355;28;20639;-77
2023/04/29 03:09:48;;;;;;;69.00;38.85;;;;;;;;;;5042751;28;20188;-77
2023/04/29 03:12:15;;;;;;;70.65;35.22;;;;;;;;;;5042646;28;20180;-78
2023/04/29 03:14:41;;;;;;;82.90;42.75;;;;;;;;;;5060005;28;20647;-77
2023/04/29 03:17:07;;;;;;;86.53;42.05;;;;;;;;;;5042394;28;20557;-77
2023/04/29 03:19:33;;;;;;;79.32;41.28;;;;;;;;;;5059178;28;20173;-77
2023/04/29 03:21:59;;;;;;;86.05;40.85;;;;;;;;;;5059171;28;20627;-77
2023/04/29 03:24:26;;;;;;;94.80;44.80;;;;;;;;;;5059456;28;20238;-77
2023/04/29 03:26:52;;;;;;;101.03;47.85;;;;;;;;;;5059404;28;20699;-77
2023/04/29 03:29:18;;;;;;;109.35;53.47;;;;;;;;;;5076775;28;20232;-77
2023/04/29 03:31:44;;;;;;;123.65;53.08;;;;;;;;;;5058616;28;20185;-77
2023/04/29 03:34:10;;;;;;;91.70;39.65;;;;;;;;;;5076940;28;20248;-77
2023/04/29 03:36:36;;;;;;;117.28;49.65;;;;;;;;;;5059267;28;20192;-77
2023/04/29 03:39:03;;;;;;;106.72;45.15;;;;;;;;;;5058660;28;20614;-79
2023/04/29 03:41:29;;;;;;;109.82;50.55;;;;;;;;;;5042263;28;20532;-77
2023/04/29 03:43:59;;;;;;;122.88;51.22;;;;;;;;;;5076838;28;20213;-77
2023/04/29 03:46:25;;;;;;;127.53;54.40;;;;;;;;;;5076618;28;20250;-77
2023/04/29 03:48:51;;;;;;;119.38;52.90;;;;;;;;;;5076961;28;20165;-77
2023/04/29 03:51:17;;;;;;;128.52;56.08;;;;;;;;;;5058994;28;20621;-77
2023/04/29 03:53:44;;;;;;;119.22;55.92;;;;;;;;;;5059087;28;20180;-77
2023/04/29 03:56:10;;;;;;;144.38;56.03;;;;;;;;;;5077008;28;20228;-77
2023/04/29 03:58:36;;;;;;;126.30;52.83;;;;;;;;;;5076717;28;20172;-77
2023/04/29 04:01:02;;;;;;;126.30;47.95;;;;;;;;;;5042865;28;20419;-77
2023/04/29 04:03:28;;;;;;;96.68;40.40;;;;;;;;;;5042445;28;20188;-77
2023/04/29 04:05:54;;;;;;;112.40;41.65;;;;;;;;;;5042394;28;20303;-77
2023/04/29 04:08:20;;;;;;;99.82;39.15;;;;;;;;;;5058612;28;20504;-77
2023/04/29 04:10:46;;;;;;;92.32;35.85;;;;;;;;;;5058761;28;20267;-77
2023/04/29 04:13:13;;;;;;;82.28;34.50;;;;;;;;;;5058175;28;20200;-77
2023/04/29 04:15:39;;;;;;;79.47;34.13;;;;;;;;;;5076492;28;20185;-77
2023/04/29 04:18:05;;;;;;;95.72;39.22;;;;;;;;;;5061033;28;20219;-78
2023/04/29 04:20:31;;;;;;;80.00;31.58;;;;;;;;;;5080600;28;20177;-77
2023/04/29 04:22:57;;;;;;;101.15;37.00;;;;;;;;;;5080815;28;20172;-77
2023/04/29 04:25:24;;;;;;;79.38;32.25;;;;;;;;;;5080287;28;20282;-77
2023/04/29 04:27:50;;;;;;;87.80;35.55;;;;;;;;;;5080450;28;20165;-77
2023/04/29 04:30:16;;;;;;;96.28;37.97;;;;;;;;;;5080484;28;20181;-77
2023/04/29 04:32:42;;;;;;;95.97;37.22;;;;;;;;;;5080120;28;20185;-77
2023/04/29 04:35:08;;;;;;;99.95;36.47;;;;;;;;;;5080207;28;20185;-78
2023/04/29 04:37:34;;;;;;;85.70;35.92;;;;;;;;;;5046040;28;20189;-77
2023/04/29 04:40:01;;;;;;;97.90;34.65;;;;;;;;;;5062269;28;20708;-77
2023/04/29 04:42:27;;;;;;;100.57;39.50;;;;;;;;;;5061622;28;20177;-77
2023/04/29 04:44:53;;;;;;;98.83;39.97;;;;;;;;;;5045969;28;20184;-77
2023/04/29 04:47:19;;;;;;;93.82;37.55;;;;;;;;;;5062253;28;20443;-77
2023/04/29 04:49:45;;;;;;;86.27;35.23;;;;;;;;;;5062031;28;20192;-76
2023/04/29 04:52:11;;;;;;;85.53;36.05;;;;;;;;;;5079496;28;20402;-77
2023/04/29 04:54:37;;;;;;;80.38;35.88;;;;;;;;;;5062074;28;20236;-76
2023/04/29 04:57:04;;;;;;;74.28;32.10;;;;;;;;;;5061840;28;20537;-77
2023/04/29 04:59:31;;;;;;;71.60;31.73;;;;;;;;;;5079703;28;20169;-77
2023/04/29 05:01:57;;;;;;;72.00;33.05;;;;;;;;;;5079149;28;20230;-77
2023/04/29 05:04:23;;;;;;;69.70;31.92;;;;;;;;;;5079758;28;20511;-77
2023/04/29 05:06:49;;;;;;;66.97;32.78;;;;;;;;;;5079594;28;20203;-77
2023/04/29 05:09:15;;;;;;;70.07;31.88;;;;;;;;;;5061516;28;20182;-77
2023/04/29 05:11:41;;;;;;;69.00;32.83;;;;;;;;;;5045821;28;20185;-77
2023/04/29 05:14:07;;;;;;;71.07;32.05;;;;;;;;;;5061536;28;20843;-80
2023/04/29 05:16:33;;;;;;;73.07;28.83;;;;;;;;;;5062135;28;20181;-77
2023/04/29 05:18:59;;;;;;;61.58;28.63;;;;;;;;;;5062262;28;20478;-77
2023/04/29 05:21:25;;;;;;;66.55;30.50;;;;;;;;;;5044984;28;20188;-77
2023/04/29 05:23:51;;;;;;;57.50;27.07;;;;;;;;;;5045037;28;20177;-77
2023/04/29 05:26:17;;;;;;;62.63;26.77;;;;;;;;;;5079374;28;20458;-77
2023/04/29 05:28:43;;;;;;;53.93;27.93;;;;;;;;;;5077886;28;20429;-77
2023/04/29 05:31:10;;;;;;;54.00;25.67;;;;;;;;;;5079065;28;20895;-78
2023/04/29 05:33:36;;;;;;;55.00;25.52;;;;;;;;;;5079534;28;20411;-77
2023/04/29 05:36:02;;;;;;;53.22;26.17;;;;;;;;;;5060515;28;20216;-77
2023/04/29 05:38:28;;;;;;;48.40;25.52;;;;;;;;;;5061254;28;20196;-77
2023/04/29 05:40:57;;;;;;;47.00;25.47;;;;;;;;;;5079304;28;20173;-77
2023/04/29 05:43:23;;;;;;;49.85;25.45;;;;;;;;;;5079171;28;20407;-77
2023/04/29 05:45:49;;;;;;;49.17;23.23;;;;;;;;;;5061495;28;20236;-77
2023/04/29 05:48:15;;;;;;;49.85;23.88;;;;;;;;;;5078745;28;20181;-77
2023/04/29 05:50:41;;;;;;;51.90;26.20;;;;;;;;;;5079604;28;20196;-77
2023/04/29 05:53:07;;;;;;;50.65;23.83;;;;;;;;;;5079345;28;20712;-77
2023/04/29 05:55:33;;;;;;;47.42;23.60;;;;;;;;;;5078976;28;20593;-77
2023/04/29 05:57:59;;;;;;;47.95;23.40;;;;;;;;;;5079547;28;20177;-77
2023/04/29 06:00:25;;;;;;;41.70;22.47;;;;;;;;;;5044061;28;20184;-77
2023/04/29 06:02:51;;;;;;;39.80;22.37;;;;;;;;;;5044791;28;20418;-77
2023/04/29 06:05:17;;;;;;;42.53;21.88;;;;;;;;;;5044273;28;20459;-75
2023/04/29 06:07:44;;;;;;;46.38;25.05;;;;;;;;;;5061079;28;20195;-77
2023/04/29 06:10:10;;;;;;;41.55;22.20;;;;;;;;;;5061238;28;20177;-77
2023/04/29 06:12:36;;;;;;;33.58;18.85;;;;;;;;;;5060238;28;20205;-77
2023/04/29 06:15:02;;;;;;;30.50;18.70;;;;;;;;;;5078631;28;20177;-77
2023/04/29 06:17:28;;;;;;;44.60;18.60;;;;;;;;;;5060323;28;20945;-77
2023/04/29 06:19:55;;;;;;;34.95;17.95;;;;;;;;;;5078146;28;20172;-77
2023/04/29 06:22:21;;;;;;;33.42;19.50;;;;;;;;;;5078518;28;20196;-77
2023/04/29 06:24:51;;;;;;;34.22;20.83;;;;;;;;;;5060291;28;20183;-77
2023/04/29 06:27:17;;;;;;;32.35;19.30;;;;;;;;;;5078101;28;20192;-77
2023/04/29 06:29:43;;;;;;;42.60;18.90;;;;;;;;;;5044321;28;20207;-77
2023/04/29 06:32:09;;;;;;;35.87;18.87;;;;;;;;;;5060153;28;20181;-77
2023/04/29 06:34:35;;;;;;;37.53;20.10;;;;;;;;;;5057829;28;20899;-87
2023/04/29 06:37:01;;;;;;;36.65;19.23;;;;;;;;;;5075388;28;20417;-87
2023/04/29 06:39:27;;;;;;;39.23;20.93;;;;;;;;;;5057135;28;20188;-87
2023/04/29 06:41:53;;;;;;;36.80;20.40;;;;;;;;;;5057816;28;20818;-79
2023/04/29 06:44:19;;;;;;;37.47;18.63;;;;;;;;;;5058540;28;20411;-79
2023/04/29 06:46:45;;;;;;;36.93;20.27;;;;;;;;;;5058684;28;20454;-79
2023/04/29 06:49:12;;;;;;;31.73;18.63;;;;;;;;;;5076840;28;20808;-79
2023/04/29 06:51:38;;;;;;;36.83;19.75;;;;;;;;;;5058329;28;20410;-79
2023/04/29 06:54:04;;;;;;;35.40;21.30;;;;;;;;;;5076542;28;20544;-78
2023/04/29 06:56:30;;;;;;;33.03;20.13;;;;;;;;;;5056076;28;20474;-79
2023/04/29 06:58:55;;;;;;;37.03;21.70;;;;;;;;;;5042170;28;20656;-77
2023/04/29 07:01:21;;;;;;;34.40;20.40;;;;;;;;;;5075756;28;20430;-78
2023/04/29 07:03:47;;;;;;;39.43;21.00;;;;;;;;;;5041801;28;20907;-78
2023/04/29 07:06:13;;;;;;;29.77;20.07;;;;;;;;;;5057757;28;20794;-81
2023/04/29 07:08:39;;;;;;;34.10;19.63;;;;;;;;;;5058203;28;20465;-78
2023/04/29 07:11:05;;;;;;;35.17;22.97;;;;;;;;;;5075784;28;20435;-79
2023/04/29 07:13:31;;;;;;;34.13;21.20;;;;;;;;;;5041285;28;20411;-78
2023/04/29 07:15:57;;;;;;;44.40;23.93;;;;;;;;;;5058514;28;20508;-78
2023/04/29 07:18:23;;;;;;;38.97;24.52;;;;;;;;;;5057402;28;20419;-78
2023/04/29 07:20:51;;;;;;;34.40;20.92;;;;;;;;;;5058533;28;20173;-77
2023/04/29 07:23:17;;;;;;;40.20;22.83;;;;;;;;;;5057497;28;20592;-78
2023/04/29 07:25:43;;;;;;;33.93;19.90;;;;;;;;;;5075723;28;20298;-78
2023/04/29 07:28:09;;;;;;;38.40;22.27;;;;;;;;;;5059305;28;20782;-77
2023/04/29 07:30:36;;;;;;;39.03;22.17;;;;;;;;;;5041427;28;20686;-78
2023/04/29 07:33:03;;;;;;;32.35;19.85;;;;;;;;;;5058348;28;20180;-78
2023/04/29 07:35:29;;;;;;;37.90;21.13;;;;;;;;;;5075826;28;20172;-78
2023/04/29 07:37:55;;;;;;;31.42;17.10;;;;;;;;;;5076068;28;20179;-78
2023/04/29 07:40:21;;;;;;;32.45;21.50;;;;;;;;;;5058072;28;20181;-78
2023/04/29 07:42:47;;;;;;;31.40;18.73;;;;;;;;;;5057894;28;20517;-78
2023/04/29 07:45:13;;;;;;;29.80;19.50;;;;;;;;;;5057196;28;20450;-78
2023/04/29 07:47:39;;;;;;;28.88;18.38;;;;;;;;;;5057619;28;20403;-78
2023/04/29 07:50:06;;;;;;;27.67;17.90;;;;;;;;;;5057743;28;20184;-78
2023/04/29 07:52:32;;;;;;;29.20;16.65;;;;;;;;;;5074139;28;20410;-78
2023/04/29 07:54:58;;;;;;;23.07;16.00;;;;;;;;;;5074740;28;20228;-78
2023/04/29 07:57:24;;;;;;;25.53;16.10;;;;;;;;;;5075255;28;20879;-79
2023/04/29 07:59:53;;;;;;;27.10;17.30;;;;;;;;;;5057550;28;20473;-78
2023/04/29 08:02:19;;;;;;;24.27;15.10;;;;;;;;;;5056981;28;20958;-79
2023/04/29 08:04:45;;;;;;;26.63;15.80;;;;;;;;;;5040843;28;20181;-78
2023/04/29 08:07:11;;;;;;;21.33;14.80;;;;;;;;;;5040642;28;20463;-78
2023/04/29 08:09:37;;;;;;;23.35;14.80;;;;;;;;;;5074365;28;20177;-78
2023/04/29 08:12:04;;;;;;;22.25;14.27;;;;;;;;;;5040611;28;20188;-79
2023/04/29 08:14:30;;;;;;;21.55;15.57;;;;;;;;;;5040323;28;20644;-78
2023/04/29 08:16:56;;;;;;;22.47;15.90;;;;;;;;;;5040024;28;20220;-79
2023/04/29 08:19:22;;;;;;;22.10;14.37;;;;;;;;;;5056234;28;20763;-78
2023/04/29 08:21:48;;;;;;;19.17;13.93;;;;;;;;;;5056943;28;20427;-78
2023/04/29 08:24:14;;;;;;;18.80;13.87;;;;;;;;;;5057284;28;20876;-78
2023/04/29 08:26:41;;;;;;;27.27;12.65;;;;;;;;;;5040189;28;20463;-78
2023/04/29 08:29:07;;;;;;;19.75;13.85;;;;;;;;;;5075029;28;20269;-78
2023/04/29 08:31:33;;;;;;;22.30;13.07;;;;;;;;;;5056837;28;20212;-79
2023/04/29 08:33:59;;;;;;;27.80;14.85;;;;;;;;;;5057046;28;20480;-78
2023/04/29 08:36:27;;;;;;;19.00;14.10;;;;;;;;;;5057019;28;20672;-78
2023/04/29 08:38:53;;;;;;;20.55;14.20;;;;;;;;;;5056801;28;20177;-78
2023/04/29 08:41:19;;;;;;;19.23;12.13;;;;;;;;;;5040596;28;20736;-78
2023/04/29 08:43:45;;;;;;;21.33;12.90;;;;;;;;;;5056310;28;20447;-79
2023/04/29 08:46:11;;;;;;;21.52;13.15;;;;;;;;;;5074551;28;20588;-78
2023/04/29 08:48:39;;;;;;;17.23;12.00;;;;;;;;;;5074568;28;20164;-78
2023/04/29 08:51:05;;;;;;;16.60;12.43;;;;;;;;;;5074862;28;20612;-78
2023/04/29 08:53:31;;;;;;;18.63;12.23;;;;;;;;;;5074455;28;20227;-79
2023/04/29 08:56:00;;;;;;;19.73;12.73;;;;;;;;;;5074729;28;20280;-79
2023/04/29 08:58:27;;;;;;;17.17;12.48;;;;;;;;;;5074376;28;20399;-78
2023/04/29 09:00:53;;;;;;;18.15;11.73;;;;;;;;;;5056274;28;20181;-79
2023/04/29 09:03:24;;;;;;;20.50;12.40;;;;;;;;;;5056972;28;20176;-79
2023/04/29 09:05:53;;;;;;;18.65;13.35;;;;;;;;;;5059979;28;20598;-80
2023/04/29 09:08:21;;;;;;;18.77;13.00;;;;;;;;;;5079398;28;20165;-78
2023/04/29 09:10:47;;;;;;;16.98;12.43;;;;;;;;;;5060970;28;20180;-81
2023/04/29 09:13:27;;;;;;;18.27;12.57;;;;;;;;;;5059613;28;20184;-80
2023/04/29 09:15:54;;;;;;;19.73;11.27;;;;;;;;;;5077206;28;20215;-80
2023/04/29 09:18:38;;;;;;;13.93;11.05;;;;;;;;;;5059763;28;20633;-80
2023/04/29 09:21:12;;;;;;;17.40;11.60;;;;;;;;;;5059794;28;20267;-80
2023/04/29 09:23:38;;;;;;;13.15;10.25;;;;;;;;;;5077384;28;20460;-80
2023/04/29 09:26:04;;;;;;;16.30;11.70;;;;;;;;;;5059500;28;20715;-79
2023/04/29 09:28:30;;;;;;;17.60;10.80;;;;;;;;;;5077220;28;20403;-80
2023/04/29 09:30:56;;;;;;;17.00;11.07;;;;;;;;;;5058360;28;20435;-79
2023/04/29 09:33:24;;;;;;;14.60;11.20;;;;;;;;;;5059758;28;20426;-83
2023/04/29 09:35:51;;;;;;;16.90;11.23;;;;;;;;;;5077267;28;20430;-80
2023/04/29 09:38:18;;;;;;;13.27;10.23;;;;;;;;;;5059119;28;20177;-80
2023/04/29 09:40:44;;;;;;;17.63;11.77;;;;;;;;;;5076978;28;20402;-79
2023/04/29 09:43:14;;;;;;;20.20;12.10;;;;;;;;;;5076960;28;20391;-79
2023/04/29 09:45:41;;;;;;;16.00;11.73;;;;;;;;;;5059001;28;20463;-79
2023/04/29 09:48:09;;;;;;;17.30;11.33;;;;;;;;;;5076492;28;20776;-80
2023/04/29 09:50:38;;;;;;;16.70;11.70;;;;;;;;;;5076369;28;20425;-80
2023/04/29 09:53:08;;;;;;;15.50;10.33;;;;;;;;;;5077154;28;20760;-80
2023/04/29 09:55:35;;;;;;;12.67;10.30;;;;;;;;;;5076312;28;20469;-80
2023/04/29 09:58:01;;;;;;;13.97;11.20;;;;;;;;;;5041913;28;20506;-80
2023/04/29 10:00:31;;;;;;;13.50;11.10;;;;;;;;;;5076686;28;20465;-81
2023/04/29 10:02:59;;;;;;;19.23;11.88;;;;;;;;;;5058828;28;20524;-80
2023/04/29 10:05:27;;;;;;;17.85;12.80;;;;;;;;;;5076314;28;20196;-83
2023/04/29 10:07:53;;;;;;;15.40;12.23;;;;;;;;;;5065953;28;20191;-80
2023/04/29 10:10:20;;;;;;;16.80;12.80;;;;;;;;;;5067042;28;20617;-80
2023/04/29 10:12:47;;;;;;;21.07;13.17;;;;;;;;;;5071195;28;20407;-80
2023/04/29 10:15:51;;;;;;;21.45;12.88;;;;;;;;;;5068133;28;20411;-80
2023/04/29 10:18:21;;;;;;;19.23;14.23;;;;;;;;;;4990353;28;20188;-81
2023/04/29 10:20:48;;;;;;;20.45;13.95;;;;;;;;;;4977204;28;20460;-80
2023/04/29 10:23:15;;;;;;;18.73;12.80;;;;;;;;;;5035385;28;20193;-79
2023/04/29 10:25:42;;;;;;;17.58;12.55;;;;;;;;;;5056991;28;20439;-79
2023/04/29 10:28:13;;;;;;;16.92;12.98;;;;;;;;;;5076047;28;20173;-80
2023/04/29 10:30:39;;;;;;;15.77;13.00;;;;;;;;;;5076246;28;20183;-80
2023/04/29 10:33:07;;;;;;;18.90;14.20;;;;;;;;;;5058563;28;20235;-80
2023/04/29 10:35:33;;;;;;;24.38;13.57;;;;;;;;;;5075817;28;20465;-80
2023/04/29 10:38:01;;;;;;;15.43;12.75;;;;;;;;;;5058387;28;20169;-79
2023/04/29 10:40:39;;;;;;;20.98;14.40;;;;;;;;;;5075971;28;20177;-82
2023/04/29 10:43:05;;;;;;;19.98;14.20;;;;;;;;;;5076045;28;20526;-79
2023/04/29 10:45:36;;;;;;;18.10;14.37;;;;;;;;;;5057898;28;20207;-80
2023/04/29 10:48:05;;;;;;;22.58;14.90;;;;;;;;;;5058570;28;20469;-80
2023/04/29 10:50:44;;;;;;;20.25;14.35;;;;;;;;;;5075424;28;20161;-80
2023/04/29 10:53:10;;;;;;;22.85;16.77;;;;;;;;;;5057672;28;20172;-79
2023/04/29 10:55:39;;;;;;;20.60;15.45;;;;;;;;;;5057118;28;20228;-80
2023/04/29 10:58:05;;;;;;;25.92;17.13;;;;;;;;;;5057801;28;20181;-80
2023/04/29 11:00:37;;;;;;;25.42;16.15;;;;;;;;;;5057446;28;20181;-80
2023/04/29 11:03:05;;;;;;;24.05;16.58;;;;;;;;;;5075564;28;20236;-80
2023/04/29 11:05:32;;;;;;;23.58;16.48;;;;;;;;;;5057138;28;20690;-80
2023/04/29 11:08:22;;;;;;;24.33;16.80;;;;;;;;;;5057540;28;20224;-80
2023/04/29 11:10:51;;;;;;;27.77;19.50;;;;;;;;;;5075382;28;20188;-80
2023/04/29 11:13:21;;;;;;;30.13;21.77;;;;;;;;;;5057573;28;20238;-80
2023/04/29 11:15:47;;;;;;;29.02;22.05;;;;;;;;;;5040778;28;20188;-80
2023/04/29 11:18:14;;;;;;;33.00;22.30;;;;;;;;;;5057403;28;20173;-80
2023/04/29 11:20:58;;;;;;;29.87;19.77;;;;;;;;;;5057267;28;20403;-80
2023/04/29 11:23:24;;;;;;;25.30;19.60;;;;;;;;;;5054187;28;20424;-79
2023/04/29 11:25:50;;;;;;;27.63;20.83;;;;;;;;;;5057682;28;20253;-79
2023/04/29 11:28:17;;;;;;;26.00;18.70;;;;;;;;;;5056743;28;20411;-80
2023/04/29 11:30:45;;;;;;;26.60;18.70;;;;;;;;;;5075051;28;20434;-80
2023/04/29 11:33:11;;;;;;;28.07;18.80;;;;;;;;;;5057342;28;20880;-79
2023/04/29 11:35:39;;;;;;;29.13;19.23;;;;;;;;;;5074732;28;20428;-80
2023/04/29 11:38:06;;;;;;;27.37;19.37;;;;;;;;;;5074692;28;20454;-79
2023/04/29 11:40:32;;;;;;;31.30;19.55;;;;;;;;;;5056846;28;20407;-79
2023/04/29 11:42:58;;;;;;;30.57;20.00;;;;;;;;;;5075074;28;20197;-79
2023/04/29 11:45:25;;;;;;;33.67;21.57;;;;;;;;;;5056952;28;20418;-79
2023/04/29 11:47:51;;;;;;;32.50;22.67;;;;;;;;;;5081377;28;20417;-79
2023/04/29 11:50:18;;;;;;;40.23;22.20;;;;;;;;;;5056834;28;20498;-79
2023/04/29 11:52:46;;;;;;;34.25;23.02;;;;;;;;;;5056624;28;20976;-80
2023/04/29 11:55:13;;;;;;;29.55;21.40;;;;;;;;;;5056274;28;20319;-79
2023/04/29 11:57:39;;;;;;;37.87;24.37;;;;;;;;;;5038559;28;20224;-79
2023/04/29 12:00:09;;;;;;;33.33;24.20;;;;;;;;;;5037288;28;20457;-79
2023/04/29 12:02:35;;;;;;;38.72;25.17;;;;;;;;;;5054337;28;20397;-79
2023/04/29 12:05:06;;;;;;;34.67;21.13;;;;;;;;;;5020378;28;20193;-79
2023/04/29 12:07:32;;;;;;;34.40;24.47;;;;;;;;;;5054733;28;20197;-82
2023/04/29 12:09:58;;;;;;;37.88;24.55;;;;;;;;;;5037024;28;20439;-79
2023/04/29 12:12:26;;;;;;;39.27;23.07;;;;;;;;;;5021457;28;20185;-79
2023/04/29 12:14:52;;;;;;;34.88;25.50;;;;;;;;;;5074536;28;20410;-79
2023/04/29 12:17:19;;;;;;;36.63;25.67;;;;;;;;;;5074755;28;20200;-79
2023/04/29 12:19:45;;;;;;;39.08;24.70;;;;;;;;;;5039945;28;20541;-79
2023/04/29 12:22:11;;;;;;;42.38;24.98;;;;;;;;;;5074461;28;20176;-80
2023/04/29 12:24:38;;;;;;;35.80;24.00;;;;;;;;;;5074767;28;20644;-79
2023/04/29 12:27:04;;;;;;;38.80;24.23;;;;;;;;;;5040338;28;20469;-80
2023/04/29 12:29:33;;;;;;;41.35;25.30;;;;;;;;;;5056844;28;20933;-79
2023/04/29 12:31:59;;;;;;;37.03;24.42;;;;;;;;;;5060795;28;20184;-87
2023/04/29 12:34:27;;;;;;;42.58;27.45;;;;;;;;;;5039808;28;20276;-81
2023/04/29 12:36:54;;;;;;;40.10;26.85;;;;;;;;;;5055804;28;20196;-79
2023/04/29 12:39:20;;;;;;;34.10;24.57;;;;;;;;;;5058844;28;20448;-80
2023/04/29 12:41:46;;;;;;;42.60;27.27;;;;;;;;;;5078451;28;20498;-80
2023/04/29 12:44:12;;;;;;;38.10;26.60;;;;;;;;;;5078542;28;20399;-78
2023/04/29 12:46:39;;;;;;;38.63;25.17;;;;;;;;;;5043079;28;20459;-80
2023/04/29 12:49:05;;;;;;;39.20;26.63;;;;;;;;;;5060392;28;20411;-80
2023/04/29 12:51:32;;;;;;;45.63;31.07;;;;;;;;;;5060341;28;20411;-80
2023/04/29 12:54:02;;;;;;;46.07;30.07;;;;;;;;;;5078283;28;20757;-80
2023/04/29 12:56:29;;;;;;;51.70;33.80;;;;;;;;;;5060335;28;20885;-80
2023/04/29 12:58:55;;;;;;;48.73;33.20;;;;;;;;;;5077739;28;20441;-80
2023/04/29 13:01:21;;;;;;;53.00;34.77;;;;;;;;;;5077955;28;20410;-80
2023/04/29 13:03:48;;;;;;;59.50;35.33;;;;;;;;;;5077497;28;20895;-80
2023/04/29 13:06:15;;;;;;;56.70;37.13;;;;;;;;;;5060119;28;20477;-80
2023/04/29 13:08:41;;;;;;;51.80;36.27;;;;;;;;;;5059716;28;20446;-80
2023/04/29 13:11:08;;;;;;;60.43;36.10;;;;;;;;;;5043409;28;20437;-80
2023/04/29 13:13:34;;;;;;;58.03;36.60;;;;;;;;;;5077811;28;20510;-79
2023/04/29 13:16:00;;;;;;;59.53;36.77;;;;;;;;;;5077011;28;20488;-80
2023/04/29 13:18:26;;;;;;;57.17;36.90;;;;;;;;;;5059691;28;20474;-80
2023/04/29 13:20:52;;;;;;;54.33;36.80;;;;;;;;;;5059267;28;20419;-80
2023/04/29 13:23:18;;;;;;;53.63;36.27;;;;;;;;;;5077663;28;20399;-80
2023/04/29 13:25:44;;;;;;;55.83;34.57;;;;;;;;;;5058741;28;20528;-80
2023/04/29 13:28:10;;;;;;;50.70;34.20;;;;;;;;;;5077253;28;20377;-80
2023/04/29 13:30:36;;;;;;;52.60;33.40;;;;;;;;;;5077478;28;20437;-82
2023/04/29 13:33:02;;;;;;;46.47;32.43;;;;;;;;;;5059429;28;20416;-80
2023/04/29 13:35:28;;;;;;;48.53;33.27;;;;;;;;;;5042813;28;20468;-80
2023/04/29 13:37:55;;;;;;;45.40;32.37;;;;;;;;;;5059169;28;20423;-80
2023/04/29 13:40:21;;;;;;;44.50;32.33;;;;;;;;;;5042876;28;20428;-77
2023/04/29 13:42:48;;;;;;;41.30;31.73;;;;;;;;;;5059143;28;20824;-80
2023/04/29 13:45:14;;;;;;;39.77;29.47;;;;;;;;;;5059694;28;20414;-80
2023/04/29 13:47:40;;;;;;;35.37;29.03;;;;;;;;;;5059620;28;20755;-81
2023/04/29 13:50:06;;;;;;;38.43;30.90;;;;;;;;;;5076200;28;20410;-80
2023/04/29 13:52:32;;;;;;;38.80;29.87;;;;;;;;;;5042406;28;20416;-80
2023/04/29 13:54:58;;;;;;;41.03;30.70;;;;;;;;;;5058355;28;20517;-80
2023/04/29 13:57:26;;;;;;;42.60;32.37;;;;;;;;;;5059225;28;20809;-80
2023/04/29 13:59:53;;;;;;;49.23;31.80;;;;;;;;;;5059073;28;20517;-80
2023/04/29 14:02:19;;;;;;;37.93;30.30;;;;;;;;;;5058914;28;20407;-80
2023/04/29 14:04:46;;;;;;;42.37;31.70;;;;;;;;;;5058493;28;20451;-81
2023/04/29 14:07:12;;;;;;;39.30;30.17;;;;;;;;;;5041398;28;20466;-80
2023/04/29 14:09:39;;;;;;;45.50;32.73;;;;;;;;;;5076584;28;20415;-80
2023/04/29 14:12:05;;;;;;;44.00;31.47;;;;;;;;;;5058441;28;20992;-79
2023/04/29 14:14:31;;;;;;;38.00;31.10;;;;;;;;;;5058309;28;20903;-80